TimeEDT,TemperatureF,Dew PointF,Humidity,Sea Level PressureIn,VisibilityMPH,Wind Direction,Wind SpeedMPH,Gust SpeedMPH,PrecipitationIn,Events,Conditions,WindDirDegrees,DateUTC
12:56 AM,54.0,42.1,64,30.08,10.0,Calm,Calm,-,N/A,,Clear,0,2013-10-08 04:56:00
1:56 AM,51.1,43.0,74,30.10,10.0,West,4.6,-,N/A,,Clear,260,2013-10-08 05:56:00
2:56 AM,51.1,43.0,74,30.11,10.0,West,5.8,-,N/A,,Clear,270,2013-10-08 06:56:00
3:56 AM,51.1,44.1,77,30.13,10.0,WSW,5.8,-,N/A,,Clear,250,2013-10-08 07:56:00
4:56 AM,48.9,44.1,83,30.17,10.0,WSW,3.5,-,N/A,,Clear,240,2013-10-08 08:56:00
5:56 AM,46.9,44.1,90,30.19,10.0,SW,3.5,-,N/A,,Clear,230,2013-10-08 09:56:00
6:56 AM,46.0,44.1,93,30.22,10.0,Calm,Calm,-,N/A,,Clear,0,2013-10-08 10:56:00
7:56 AM,48.9,46.0,90,30.25,10.0,West,3.5,-,N/A,,Clear,260,2013-10-08 11:56:00
8:56 AM,55.9,46.9,72,30.28,10.0,SSW,3.5,-,N/A,,Clear,210,2013-10-08 12:56:00
9:56 AM,59.0,45.0,60,30.30,10.0,NW,5.8,-,N/A,,Clear,320,2013-10-08 13:56:00
10:56 AM,62.1,42.1,48,30.30,10.0,Variable,6.9,-,N/A,,Clear,0,2013-10-08 14:56:00
11:56 AM,64.0,41.0,43,30.30,10.0,NNW,10.4,-,N/A,,Clear,340,2013-10-08 15:56:00
12:56 PM,64.0,39.9,41,30.28,10.0,NNW,6.9,-,N/A,,Clear,330,2013-10-08 16:56:00
1:56 PM,66.0,39.0,37,30.27,10.0,North,8.1,-,N/A,,Clear,10,2013-10-08 17:56:00
2:56 PM,66.9,42.1,40,30.27,10.0,Calm,Calm,-,N/A,,Clear,0,2013-10-08 18:56:00
3:56 PM,66.9,41.0,39,30.25,10.0,North,6.9,-,N/A,,Clear,350,2013-10-08 19:56:00
4:56 PM,68.0,42.1,39,30.25,10.0,NNE,4.6,-,N/A,,Clear,20,2013-10-08 20:56:00
5:56 PM,66.0,42.1,42,30.26,10.0,North,5.8,-,N/A,,Clear,360,2013-10-08 21:56:00
6:56 PM,64.0,43.0,46,30.27,10.0,Calm,Calm,-,N/A,,Clear,0,2013-10-08 22:56:00
7:56 PM,55.0,46.9,74,30.29,10.0,SW,4.6,-,N/A,,Clear,220,2013-10-08 23:56:00
8:56 PM,54.0,46.9,77,30.30,10.0,Calm,Calm,-,N/A,,Clear,0,2013-10-09 00:56:00
9:56 PM,52.0,46.9,83,30.32,10.0,Calm,Calm,-,N/A,,Clear,0,2013-10-09 01:56:00
10:56 PM,50.0,46.9,89,30.32,10.0,Calm,Calm,-,N/A,,Clear,0,2013-10-09 02:56:00
11:56 PM,51.1,46.9,86,30.32,10.0,Calm,Calm,-,N/A,,Clear,0,2013-10-09 03:56:00